LIRZ/PEG METAR and TAF weather

Enter ICAO airport designator
Station Type Date Time Source
LIRZ METAR 2020/08/15 10:20 UTC NOAA

LIRZ 151020Z AUTO VRB04KT 9999 NCD 30/17 Q1013


Station Type Date Time Source
LIRZ Decoded METAR 2020/08/15 10:20 UTC NOAA

Perugia, Italy (LIRZ) 43-05N 012-30E 205M
Aug 15, 2020 - 06:20 AM EDT / 2020.08.15 1020 UTC
Wind: Variable at 5 MPH (4 KT):0
Visibility: greater than 7 mile(s):0
Temperature: 86 F (30 C)
Dew Point: 62 F (17 C)
Relative Humidity: 45%
Pressure (altimeter): 29.91 in. Hg (1013 hPa)
ob: LIRZ 151020Z AUTO VRB04KT 9999 NCD 30/17 Q1013
cycle: 10

Station Type Date Time Source
LIRZ TAF 2020/08/15 06:21 UTC NOAA

TAF LIRZ 150500Z 1506/1606 VRB05KT 9999 FEW030

Example: see airport list